Time;durP1;ratioP1;P1;durP2;ratioP2;P2;SDS_P1;SDS_P2;PMS_P1;PMS_P2;Temp;Humidity;BMP_temperature;BMP_pressure;BME280_temperature;BME280_humidity;BME280_pressure;Samples;Min_cycle;Max_cycle;Signal;HPM_P1;HPM_P2
2023/05/27 00:00:04;;;;;;;13.20;5.10;;;;;;;10.13;68.12;99542.83;225522;1283;22548;-73
2023/05/27 00:05:19;;;;;;;10.90;5.30;;;;;;;10.04;68.49;99542.34;225430;1283;22540;-73
2023/05/27 00:10:30;;;;;;;9.20;4.80;;;;;;;9.96;68.54;99542.59;225521;1283;22555;-73
2023/05/27 00:16:01;;;;;;;9.90;4.90;;;;;;;9.86;68.95;99545.90;225530;1283;22540;-72
2023/05/27 00:21:16;;;;;;;10.20;5.00;;;;;;;9.77;69.29;99540.91;225408;1281;22540;-73
2023/05/27 00:26:32;;;;;;;9.20;4.70;;;;;;;9.68;69.29;99541.52;225436;1281;22546;-73
2023/05/27 00:31:44;;;;;;;10.40;5.60;;;;;;;9.60;69.82;99541.50;225484;1281;22534;-74
2023/05/27 00:36:56;;;;;;;9.80;4.90;;;;;;;9.51;70.04;99542.20;225365;1283;24206;-73
2023/05/27 00:42:07;;;;;;;16.80;5.70;;;;;;;9.44;70.40;99546.95;225378;1283;22537;-72
2023/05/27 00:47:21;;;;;;;11.30;5.10;;;;;;;9.36;70.50;99553.15;225390;1281;22536;-73
2023/05/27 00:52:27;;;;;;;13.10;5.20;;;;;;;9.29;70.90;99552.35;225370;1281;22556;-74
2023/05/27 00:57:38;;;;;;;12.30;5.60;;;;;;;9.21;71.13;99551.59;225497;1283;22563;-73
2023/05/27 01:02:44;;;;;;;13.70;5.70;;;;;;;9.14;71.41;99550.91;225589;1283;22566;-74
2023/05/27 01:08:05;;;;;;;11.50;5.70;;;;;;;9.08;71.81;99550.36;225389;1281;22540;-74
2023/05/27 01:13:55;;;;;;;12.50;5.50;;;;;;;9.00;71.65;99555.45;225495;1283;22557;-73
2023/05/27 01:20:03;;;;;;;13.10;6.00;;;;;;;8.93;71.96;99548.26;225420;1283;23384;-74
2023/05/27 01:25:10;;;;;;;12.10;5.60;;;;;;;8.88;72.18;99549.30;225470;1283;22557;-73
2023/05/27 01:30:29;;;;;;;15.90;6.10;;;;;;;8.82;72.38;99548.86;225341;1272;24260;-74
2023/05/27 01:36:04;;;;;;;;;;;;;;;8.73;72.53;99547.15;225499;1281;22541;-74
2023/05/27 01:41:21;;;;;;;14.70;5.90;;;;;;;8.61;72.87;99552.23;225465;1283;22537;-74
2023/05/27 01:46:42;;;;;;;11.90;5.90;;;;;;;8.50;73.00;99553.02;225393;1283;22552;-73
2023/05/27 01:52:07;;;;;;;13.40;6.20;;;;;;;8.40;72.86;99549.14;225418;1283;22603;-74
2023/05/27 01:57:31;;;;;;;13.60;6.00;;;;;;;8.32;72.93;99553.48;225382;1283;22547;-73
2023/05/27 02:02:46;;;;;;;15.70;5.90;;;;;;;8.22;73.47;99544.23;225511;1283;22587;-73
2023/05/27 02:08:07;;;;;;;14.20;6.20;;;;;;;8.11;73.87;99554.27;225491;1283;22492;-72
2023/05/27 02:13:33;;;;;;;15.10;5.40;;;;;;;8.03;74.34;99560.75;225383;1283;22559;-74
2023/05/27 02:19:04;;;;;;;17.30;6.40;;;;;;;7.95;74.07;99557.47;225499;1279;22543;-73
2023/05/27 02:24:59;;;;;;;12.80;6.10;;;;;;;7.88;74.60;99561.38;225491;1281;22541;-73
2023/05/27 02:30:30;;;;;;;14.10;6.80;;;;;;;7.82;74.91;99558.77;225485;1283;22555;-72
2023/05/27 02:36:00;;;;;;;15.40;6.40;;;;;;;7.78;74.96;99566.91;225422;1283;24228;-74
2023/05/27 02:41:06;;;;;;;12.80;6.00;;;;;;;7.72;74.71;99572.55;225422;1283;22556;-74
2023/05/27 02:46:27;;;;;;;13.40;6.10;;;;;;;7.66;75.42;99572.11;225314;1283;22554;-73
2023/05/27 02:51:47;;;;;;;15.60;6.40;;;;;;;7.60;75.46;99573.58;225325;1283;22564;-74
2023/05/27 02:57:07;;;;;;;17.10;7.00;;;;;;;7.56;75.86;99574.88;225485;1281;22548;-74
2023/05/27 03:02:35;;;;;;;13.10;6.10;;;;;;;7.56;75.81;99586.14;225393;1283;22547;-74
2023/05/27 03:07:52;;;;;;;16.00;6.40;;;;;;;7.59;76.03;99592.60;225496;1283;23453;-74
2023/05/27 03:13:06;;;;;;;11.80;6.20;;;;;;;7.62;76.21;99600.66;225429;1283;22530;-73
2023/05/27 03:18:45;;;;;;;11.30;6.40;;;;;;;7.67;75.95;99602.20;225491;1283;23397;-73
2023/05/27 03:23:59;;;;;;;15.40;6.90;;;;;;;7.74;76.16;99605.98;225442;1283;22570;-73
2023/05/27 03:29:22;;;;;;;15.00;7.30;;;;;;;7.90;76.09;99616.36;225480;1283;22671;-74
2023/05/27 03:34:48;;;;;;;14.60;6.40;;;;;;;8.12;76.20;99611.39;225429;1279;22548;-73
2023/05/27 03:40:03;;;;;;;14.40;6.50;;;;;;;8.39;76.06;99622.26;225406;1279;22553;-72
2023/05/27 03:45:27;;;;;;;17.30;6.00;;;;;;;8.64;75.88;99632.20;225320;1283;22726;-72
2023/05/27 03:50:44;;;;;;;14.90;6.10;;;;;;;8.85;75.66;99641.96;225503;1279;23432;-73
2023/05/27 03:56:07;;;;;;;14.10;6.00;;;;;;;9.03;75.52;99645.92;225363;1282;22569;-73
2023/05/27 04:01:46;;;;;;;14.60;5.70;;;;;;;9.17;75.14;99651.55;225419;1283;22544;-73
2023/05/27 04:07:08;;;;;;;15.10;5.80;;;;;;;9.29;74.85;99653.80;225417;1283;22538;-73
2023/05/27 04:12:48;;;;;;;14.10;5.80;;;;;;;9.42;74.79;99652.63;225494;1283;22555;-73
2023/05/27 04:18:12;;;;;;;14.30;5.70;;;;;;;9.52;74.67;99656.15;225440;1283;23158;-73
2023/05/27 04:23:42;;;;;;;15.10;6.00;;;;;;;9.61;74.42;99655.70;225467;1283;25241;-74
2023/05/27 04:29:44;;;;;;;15.70;5.80;;;;;;;9.74;74.30;99657.75;225444;1283;22538;-74
2023/05/27 04:35:50;;;;;;;;;;;;;;;;;;;;;
2023/05/27 04:41:04;;;;;;;14.90;5.40;;;;;;;9.98;73.96;99654.83;225394;1283;22540;-74
2023/05/27 04:47:16;;;;;;;13.20;5.60;;;;;;;10.13;73.87;99658.29;225290;1283;22584;-75
2023/05/27 04:52:38;;;;;;;12.10;6.00;;;;;;;10.27;73.81;99657.40;225384;1283;22557;-74
2023/05/27 04:58:02;;;;;;;13.60;6.20;;;;;;;10.40;73.21;99660.31;225341;1283;22548;-74
2023/05/27 05:03:36;;;;;;;15.50;5.50;;;;;;;10.53;73.19;99656.41;225317;1283;22542;-74
2023/05/27 05:09:21;;;;;;;;;;;;;;;;;;;;;
2023/05/27 05:15:34;;;;;;;19.80;6.90;;;;;;;10.92;72.91;99651.23;225379;1283;22530;-74
2023/05/27 05:21:02;;;;;;;15.50;6.40;;;;;;;11.14;72.44;99651.45;225425;1283;22547;-74
2023/05/27 05:26:33;;;;;;;12.00;5.70;;;;;;;11.35;72.18;99654.27;225434;1280;22540;-75
2023/05/27 05:31:51;;;;;;;15.50;5.60;;;;;;;11.56;71.99;99654.82;225446;1283;22561;-74
2023/05/27 05:37:31;;;;;;;15.50;6.00;;;;;;;11.77;71.69;99659.42;225322;1283;22564;-75
2023/05/27 05:43:03;;;;;;;16.60;6.20;;;;;;;11.99;71.50;99657.23;225390;1283;22550;-73
2023/05/27 05:48:13;;;;;;;18.70;6.50;;;;;;;12.23;71.06;99656.44;225241;1283;23060;-73
2023/05/27 05:53:52;;;;;;;18.10;6.50;;;;;;;12.43;70.71;99668.80;225316;1283;22584;-74
2023/05/27 05:59:33;;;;;;;15.70;5.80;;;;;;;12.61;70.40;99675.98;225411;1283;22572;-73
2023/05/27 06:05:00;;;;;;;14.30;5.50;;;;;;;12.81;70.08;99680.33;225383;1283;23182;-73
2023/05/27 06:10:16;;;;;;;14.40;5.50;;;;;;;13.00;69.92;99681.80;225401;1283;22545;-75
2023/05/27 06:15:36;;;;;;;13.70;5.70;;;;;;;13.16;69.46;99678.35;225344;1278;22579;-74
2023/05/27 06:21:00;;;;;;;21.90;6.60;;;;;;;13.27;69.07;99681.59;225306;1283;22573;-73
2023/05/27 06:26:24;;;;;;;13.40;5.60;;;;;;;13.40;68.54;99679.80;225374;1283;22712;-74
2023/05/27 06:31:40;;;;;;;17.40;6.20;;;;;;;13.47;68.30;99683.81;225395;1283;22571;-74
2023/05/27 06:37:05;;;;;;;16.70;6.20;;;;;;;13.61;68.04;99680.31;225418;1283;22737;-72
2023/05/27 06:42:39;;;;;;;18.40;5.40;;;;;;;13.77;67.71;99675.08;225439;1283;22551;-74
2023/05/27 06:48:41;;;;;;;15.70;5.80;;;;;;;13.91;67.63;99672.25;225380;1283;22539;-74
2023/05/27 06:53:56;;;;;;;19.40;6.30;;;;;;;13.99;66.97;99676.38;225007;1283;22543;-74
2023/05/27 06:59:29;;;;;;;12.60;5.10;;;;;;;14.10;66.92;99674.67;225070;1275;22571;-75
2023/05/27 07:04:40;;;;;;;14.90;5.50;;;;;;;14.28;66.81;99674.96;225243;1270;22553;-74
2023/05/27 07:10:09;;;;;;;13.30;5.30;;;;;;;14.47;66.70;99675.27;225099;1275;22604;-77
2023/05/27 07:15:17;;;;;;;18.10;5.90;;;;;;;14.68;66.53;99676.63;225011;1275;25328;-74
2023/05/27 07:20:32;;;;;;;12.40;4.70;;;;;;;14.88;66.10;99677.52;225027;1270;22543;-74
2023/05/27 07:25:45;;;;;;;12.20;4.60;;;;;;;15.05;65.55;99679.98;225049;1276;22640;-74
2023/05/27 07:31:00;;;;;;;10.80;4.50;;;;;;;15.16;65.49;99672.11;224965;1276;22550;-74
2023/05/27 07:36:05;;;;;;;13.30;4.90;;;;;;;15.30;64.80;99674.31;225141;1283;22671;-72
2023/05/27 07:41:07;;;;;;;15.40;4.80;;;;;;;15.36;64.45;99674.42;225058;1277;24283;-74
2023/05/27 07:46:19;;;;;;;20.10;6.10;;;;;;;15.45;64.47;99673.73;225177;1260;22550;-75
2023/05/27 07:51:32;;;;;;;10.80;4.90;;;;;;;15.55;63.71;99680.79;225157;1283;23137;-72
2023/05/27 07:56:35;;;;;;;12.40;4.40;;;;;;;15.66;63.34;99680.83;225102;1270;22571;-74
2023/05/27 08:01:40;;;;;;;14.00;4.50;;;;;;;15.81;63.20;99674.34;224143;1280;23173;-76
2023/05/27 08:06:46;;;;;;;12.40;4.90;;;;;;;15.92;62.97;99667.11;224039;1271;22566;-76
2023/05/27 08:12:21;;;;;;;11.50;4.30;;;;;;;16.13;62.89;99664.67;223904;1278;26296;-75
2023/05/27 08:17:51;;;;;;;10.90;4.10;;;;;;;16.34;61.85;99664.33;224017;1272;22559;-76
2023/05/27 08:23:26;;;;;;;12.60;3.80;;;;;;;16.51;60.77;99667.75;223892;1284;22641;-75
2023/05/27 08:28:57;;;;;;;10.90;3.80;;;;;;;16.64;60.13;99656.49;223992;1283;24900;-76
2023/05/27 08:34:30;;;;;;;14.70;5.50;;;;;;;16.82;59.90;99653.79;224002;1283;25357;-76
2023/05/27 08:39:33;;;;;;;11.60;3.90;;;;;;;16.98;60.01;99652.58;226964;1275;23051;-76
2023/05/27 08:45:01;;;;;;;9.60;4.50;;;;;;;17.10;60.05;99648.60;226973;1283;22309;-75
2023/05/27 08:50:03;;;;;;;14.10;4.10;;;;;;;17.21;60.03;99644.77;225233;1281;22581;-74
2023/05/27 08:55:13;;;;;;;11.90;4.10;;;;;;;17.31;59.28;99638.82;225091;1283;22600;-75
2023/05/27 09:00:22;;;;;;;12.30;4.20;;;;;;;17.41;59.49;99640.27;225130;1278;22585;-74
2023/05/27 09:05:28;;;;;;;14.20;4.40;;;;;;;17.53;59.40;99641.20;225141;1281;22642;-75
2023/05/27 09:10:40;;;;;;;9.20;3.60;;;;;;;17.67;58.92;99635.74;225025;1283;25325;-74
2023/05/27 09:15:47;;;;;;;17.10;5.70;;;;;;;17.80;58.58;99623.39;225124;1283;22553;-74
2023/05/27 09:20:55;;;;;;;10.10;3.90;;;;;;;17.93;58.29;99623.61;224905;1262;25061;-73
2023/05/27 09:26:01;;;;;;;10.20;3.70;;;;;;;18.05;57.99;99620.93;225083;1275;22985;-75
2023/05/27 09:31:13;;;;;;;10.70;3.50;;;;;;;18.21;57.15;99607.42;224397;1277;23082;-76
2023/05/27 09:36:21;;;;;;;13.60;4.70;;;;;;;18.28;56.75;99599.70;224094;1271;22576;-77
2023/05/27 09:41:30;;;;;;;8.50;3.30;;;;;;;18.37;56.79;99597.38;224022;1273;22566;-77
2023/05/27 09:46:39;;;;;;;8.70;3.20;;;;;;;18.41;55.96;99598.00;223996;1265;22596;-80
2023/05/27 09:51:42;;;;;;;10.30;3.80;;;;;;;18.51;55.96;99594.21;223907;1275;23440;-76
2023/05/27 09:56:45;;;;;;;7.30;2.90;;;;;;;18.57;55.14;99602.79;223861;1283;22627;-77
2023/05/27 10:01:49;;;;;;;10.80;3.30;;;;;;;18.52;54.70;99596.02;223800;1283;23573;-75
2023/05/27 10:06:53;;;;;;;10.30;3.90;;;;;;;18.61;55.27;99593.52;226928;1283;22109;-77
2023/05/27 10:11:56;;;;;;;9.10;3.80;;;;;;;18.79;54.90;99594.73;226924;1277;22672;-77
2023/05/27 10:16:59;;;;;;;6.20;2.70;;;;;;;18.93;54.04;99597.67;226935;1283;22180;-77
2023/05/27 10:22:10;;;;;;;6.20;2.80;;;;;;;18.98;53.24;99591.73;225409;1277;22968;-73
2023/05/27 10:27:12;;;;;;;8.00;3.30;;;;;;;19.02;53.51;99588.13;224970;1281;22543;-73
2023/05/27 10:32:18;;;;;;;6.60;3.50;;;;;;;19.13;53.02;99586.05;225083;1264;22563;-73
2023/05/27 10:37:21;;;;;;;10.50;2.90;;;;;;;19.13;52.29;99580.02;224989;1271;266659;-73
2023/05/27 10:42:25;;;;;;;7.20;3.10;;;;;;;19.15;52.25;99577.77;225249;1278;22552;-72
2023/05/27 10:47:29;;;;;;;8.80;2.90;;;;;;;19.25;51.93;99574.07;225285;1263;25278;-72
2023/05/27 10:52:38;;;;;;;7.00;3.00;;;;;;;19.38;51.29;99567.22;225272;1268;25436;-73
2023/05/27 10:57:47;;;;;;;7.00;2.80;;;;;;;19.50;51.12;99568.41;225301;1279;24254;-73
2023/05/27 11:02:52;;;;;;;6.20;2.90;;;;;;;19.61;50.96;99563.52;225076;1262;22589;-74
2023/05/27 11:08:00;;;;;;;6.50;3.30;;;;;;;19.71;50.26;99557.41;225006;1262;22546;-75
2023/05/27 11:13:06;;;;;;;6.20;2.70;;;;;;;19.77;49.98;99556.07;225311;1283;22647;-72
2023/05/27 11:18:11;;;;;;;8.60;3.40;;;;;;;19.78;49.07;99556.52;225183;1280;22560;-73
2023/05/27 11:23:13;;;;;;;5.70;3.00;;;;;;;19.76;48.65;99552.05;225209;1279;22539;-73
2023/05/27 11:28:16;;;;;;;7.30;3.10;;;;;;;19.79;48.84;99557.29;225286;1283;25229;-72
2023/05/27 11:33:30;;;;;;;5.10;2.80;;;;;;;19.87;48.01;99551.52;225371;1278;22546;-73
2023/05/27 11:38:55;;;;;;;7.40;3.30;;;;;;;19.94;47.55;99554.36;225332;1278;22583;-73
2023/05/27 11:44:00;;;;;;;5.60;2.90;;;;;;;20.06;47.44;99551.22;225366;1280;22514;-74
2023/05/27 11:49:07;;;;;;;5.00;2.60;;;;;;;20.10;46.83;99546.55;225335;1281;22577;-74
2023/05/27 11:54:21;;;;;;;5.20;2.90;;;;;;;20.15;46.24;99542.76;225337;1280;22560;-73
2023/05/27 11:59:24;;;;;;;5.60;2.50;;;;;;;20.15;45.92;99536.96;225308;1283;22568;-72
2023/05/27 12:04:26;;;;;;;5.00;2.60;;;;;;;20.16;44.84;99528.95;225374;1275;25294;-72
2023/05/27 12:09:32;;;;;;;5.60;2.30;;;;;;;20.19;44.89;99530.25;225351;1279;22578;-72
2023/05/27 12:14:37;;;;;;;3.10;2.30;;;;;;;20.27;44.65;99517.60;225343;1281;22527;-72
2023/05/27 12:19:39;;;;;;;4.00;2.90;;;;;;;20.32;44.50;99520.74;225393;1278;22547;-72
2023/05/27 12:24:42;;;;;;;5.10;2.80;;;;;;;20.34;43.91;99523.93;225311;1278;22616;-73
2023/05/27 12:29:46;;;;;;;5.80;3.00;;;;;;;20.42;43.76;99524.33;225028;1284;22530;-72
2023/05/27 12:34:49;;;;;;;4.60;2.80;;;;;;;20.49;43.48;99521.75;225158;1284;22659;-73
2023/05/27 12:39:52;;;;;;;4.60;2.90;;;;;;;20.54;42.69;99520.51;225261;1280;22546;-73
2023/05/27 12:44:55;;;;;;;5.00;3.00;;;;;;;20.50;42.65;99509.62;225248;1284;22549;-73
2023/05/27 12:50:00;;;;;;;5.20;3.00;;;;;;;20.58;42.98;99504.06;225138;1281;22672;-72
2023/05/27 12:55:06;;;;;;;9.60;3.40;;;;;;;20.66;42.22;99501.88;225242;1283;23291;-72
2023/05/27 13:00:09;;;;;;;5.20;3.30;;;;;;;20.68;42.50;99498.16;225256;1278;22538;-73
2023/05/27 13:05:13;;;;;;;6.10;3.30;;;;;;;20.76;43.06;99500.10;225260;1284;22546;-73
2023/05/27 13:10:21;;;;;;;4.90;3.00;;;;;;;20.87;42.83;99500.80;225261;1281;22544;-73
2023/05/27 13:15:23;;;;;;;4.90;2.90;;;;;;;20.85;42.09;99491.79;225230;1284;24265;-72
2023/05/27 13:20:29;;;;;;;4.00;2.70;;;;;;;20.73;41.89;99485.17;225296;1260;22610;-73
2023/05/27 13:25:32;;;;;;;5.00;2.90;;;;;;;20.68;42.15;99484.46;225190;1284;22539;-73
2023/05/27 13:30:38;;;;;;;4.40;2.70;;;;;;;20.68;42.20;99484.41;225254;1284;22538;-72
2023/05/27 13:35:42;;;;;;;4.60;2.40;;;;;;;20.72;42.31;99479.11;225244;1277;22558;-71
2023/05/27 13:40:45;;;;;;;3.40;2.60;;;;;;;20.74;42.20;99472.25;225296;1284;22555;-73
2023/05/27 13:45:47;;;;;;;5.70;3.10;;;;;;;20.78;41.82;99463.45;225213;1284;22536;-71
2023/05/27 13:50:50;;;;;;;4.10;2.70;;;;;;;20.77;42.04;99455.21;225218;1278;22570;-73
2023/05/27 13:55:55;;;;;;;3.70;2.20;;;;;;;20.78;42.22;99458.40;225216;1278;22619;-73
2023/05/27 14:00:57;;;;;;;6.30;2.20;;;;;;;20.82;42.50;99457.57;225209;1283;22553;-72
2023/05/27 14:06:02;;;;;;;3.70;2.30;;;;;;;20.84;42.02;99451.42;225260;1262;22551;-74
2023/05/27 14:11:06;;;;;;;3.70;2.40;;;;;;;20.84;41.89;99445.56;225283;1284;22646;-73
2023/05/27 14:16:09;;;;;;;3.10;1.90;;;;;;;20.83;41.60;99438.95;225228;1280;22561;-73
2023/05/27 14:21:14;;;;;;;4.40;2.50;;;;;;;20.83;41.58;99431.15;225224;1277;22570;-73
2023/05/27 14:26:20;;;;;;;2.80;2.30;;;;;;;20.87;41.45;99423.77;225267;1281;22626;-72
2023/05/27 14:31:33;;;;;;;3.60;2.20;;;;;;;20.92;41.58;99422.25;225229;1283;22624;-72
2023/05/27 14:36:36;;;;;;;3.90;1.90;;;;;;;20.96;40.95;99418.18;225246;1281;22542;-72
2023/05/27 14:41:39;;;;;;;2.80;2.20;;;;;;;20.93;41.15;99414.64;225215;1280;22564;-73
2023/05/27 14:46:42;;;;;;;4.30;2.00;;;;;;;21.00;41.62;99404.73;225201;1278;22538;-72
2023/05/27 14:51:46;;;;;;;2.70;2.10;;;;;;;21.09;41.37;99409.30;225242;1284;22558;-72
2023/05/27 14:56:52;;;;;;;5.50;1.90;;;;;;;21.03;41.11;99403.77;225236;1278;22585;-73
2023/05/27 15:02:07;;;;;;;3.40;2.10;;;;;;;21.03;41.85;99398.66;225238;1284;24268;-72
2023/05/27 15:07:10;;;;;;;2.70;1.90;;;;;;;21.07;41.81;99391.70;225200;1280;22546;-71
2023/05/27 15:12:15;;;;;;;5.50;2.50;;;;;;;21.07;41.62;99392.19;225175;1284;22539;-72
2023/05/27 15:17:21;;;;;;;4.20;2.10;;;;;;;21.04;41.53;99384.02;225169;1282;22545;-72
2023/05/27 15:22:23;;;;;;;2.70;1.90;;;;;;;20.95;41.32;99387.11;225224;1281;22548;-72
2023/05/27 15:27:26;;;;;;;5.40;2.40;;;;;;;20.85;41.47;99376.73;225235;1278;22544;-72
2023/05/27 15:32:36;;;;;;;3.60;1.90;;;;;;;20.85;41.73;99378.98;225236;1284;22592;-73
2023/05/27 15:37:44;;;;;;;3.40;1.90;;;;;;;20.82;41.81;99378.11;225240;1281;22555;-72
2023/05/27 15:42:46;;;;;;;3.50;2.10;;;;;;;20.80;41.96;99380.75;225241;1277;22550;-73
2023/05/27 15:47:53;;;;;;;4.20;2.00;;;;;;;20.75;41.85;99376.70;225258;1282;22530;-73
2023/05/27 15:53:08;;;;;;;2.20;1.80;;;;;;;20.75;42.33;99376.01;225206;1281;23456;-71
2023/05/27 15:58:12;;;;;;;2.70;1.90;;;;;;;20.71;42.19;99370.83;225227;1278;22535;-72
2023/05/27 16:03:18;;;;;;;4.60;1.80;;;;;;;20.62;42.05;99368.82;225165;1277;22550;-73
2023/05/27 16:08:23;;;;;;;3.20;1.80;;;;;;;20.53;42.53;99361.91;225155;1278;22554;-71
2023/05/27 16:13:25;;;;;;;4.50;2.40;;;;;;;20.43;42.38;99352.83;225141;1280;22546;-71
2023/05/27 16:18:33;;;;;;;3.50;1.90;;;;;;;20.40;42.69;99348.88;225185;1283;22566;-72
2023/05/27 16:23:39;;;;;;;2.60;2.00;;;;;;;20.39;42.87;99343.82;225232;1284;22703;-74
2023/05/27 16:28:42;;;;;;;3.70;2.10;;;;;;;20.40;43.24;99341.90;225238;1283;22646;-73
2023/05/27 16:33:45;;;;;;;4.40;2.30;;;;;;;20.42;43.36;99341.83;225219;1284;22620;-72
2023/05/27 16:38:57;;;;;;;3.20;1.90;;;;;;;20.32;43.44;99345.41;225281;1284;23077;-71
2023/05/27 16:44:01;;;;;;;4.50;2.00;;;;;;;20.22;43.78;99343.77;225261;1284;22550;-72
2023/05/27 16:49:04;;;;;;;2.60;1.90;;;;;;;20.07;43.89;99340.38;225267;1284;25034;-71
2023/05/27 16:54:09;;;;;;;4.20;2.00;;;;;;;19.95;44.14;99341.88;225230;1284;22642;-73
2023/05/27 16:59:21;;;;;;;5.40;2.40;;;;;;;19.88;44.65;99336.27;225235;1281;22553;-72
2023/05/27 17:04:27;;;;;;;4.50;2.30;;;;;;;19.79;44.77;99336.85;225291;1284;22532;-72
2023/05/27 17:09:30;;;;;;;5.90;2.10;;;;;;;19.70;44.89;99335.05;225255;1284;22556;-72
2023/05/27 17:14:35;;;;;;;4.80;2.10;;;;;;;19.88;45.42;99333.10;225171;1271;23073;-71
2023/05/27 17:19:38;;;;;;;3.40;2.30;;;;;;;20.72;45.21;99323.20;225145;1277;24366;-72
2023/05/27 17:24:42;;;;;;;4.00;2.30;;;;;;;21.41;44.32;99325.54;225173;1281;22491;-73
2023/05/27 17:29:48;;;;;;;3.50;2.30;;;;;;;22.04;43.89;99324.44;225223;1284;22543;-72
2023/05/27 17:35:11;;;;;;;6.20;2.80;;;;;;;22.45;42.77;99324.04;225235;1284;24233;-73
2023/05/27 17:40:13;;;;;;;4.10;2.60;;;;;;;22.12;42.38;99327.11;225255;1281;22550;-72
2023/05/27 17:45:19;;;;;;;3.10;2.40;;;;;;;21.22;42.30;99329.34;225228;1284;22542;-73
2023/05/27 17:50:21;;;;;;;3.80;2.10;;;;;;;20.39;43.37;99333.85;225276;1284;22546;-72
2023/05/27 17:55:23;;;;;;;3.30;2.40;;;;;;;19.80;44.31;99337.15;225315;1278;22585;-72
2023/05/27 18:00:26;;;;;;;3.90;2.20;;;;;;;19.32;44.82;99338.95;225276;1284;22541;-71
2023/05/27 18:05:28;;;;;;;3.90;2.10;;;;;;;18.87;45.53;99339.83;225279;1281;23140;-72
2023/05/27 18:10:31;;;;;;;4.00;2.10;;;;;;;18.45;46.12;99339.21;225227;1281;23822;-72
2023/05/27 18:15:41;;;;;;;5.00;2.70;;;;;;;18.07;46.60;99342.70;225271;1281;22560;-71
2023/05/27 18:20:47;;;;;;;4.70;2.50;;;;;;;17.75;47.36;99343.07;225292;1284;22751;-71
2023/05/27 18:25:50;;;;;;;4.40;2.60;;;;;;;17.45;47.98;99342.98;225258;1284;22568;-71
2023/05/27 18:30:52;;;;;;;4.20;2.70;;;;;;;17.15;48.69;99346.67;225263;1281;25291;-72
2023/05/27 18:36:04;;;;;;;4.10;2.60;;;;;;;16.89;49.36;99352.79;225272;1281;22546;-72
2023/05/27 18:41:07;;;;;;;6.50;2.80;;;;;;;16.62;49.90;99354.90;225249;1282;22567;-73
2023/05/27 18:46:28;;;;;;;5.80;3.00;;;;;;;16.36;50.56;99353.68;225253;1284;22572;-71
2023/05/27 18:51:38;;;;;;;6.70;2.80;;;;;;;16.11;51.44;99358.44;225245;1281;23359;-71
2023/05/27 18:57:13;;;;;;;5.80;3.70;;;;;;;15.88;52.19;99369.96;225210;1282;22551;-71
2023/05/27 19:02:30;;;;;;;6.90;3.70;;;;;;;15.66;52.45;99373.61;225211;1285;24493;-71
2023/05/27 19:07:39;;;;;;;7.70;3.60;;;;;;;15.47;53.33;99377.40;225219;1284;24268;-71
2023/05/27 19:12:41;;;;;;;6.00;3.60;;;;;;;15.29;54.31;99383.85;225101;1285;22538;-72
2023/05/27 19:17:50;;;;;;;9.20;3.80;;;;;;;15.15;54.57;99387.44;225099;1284;22543;-73
2023/05/27 19:22:55;;;;;;;8.80;3.60;;;;;;;14.99;55.03;99388.71;225167;1282;22546;-72
2023/05/27 19:27:58;;;;;;;6.00;3.60;;;;;;;14.87;55.68;99384.79;225212;1284;24266;-71
2023/05/27 19:33:00;;;;;;;6.40;3.60;;;;;;;14.79;56.12;99393.82;225234;1281;22547;-70
2023/05/27 19:38:03;;;;;;;6.30;4.20;;;;;;;14.70;56.56;99390.10;225246;1283;24995;-71
2023/05/27 19:43:06;;;;;;;6.60;4.60;;;;;;;14.57;56.90;99395.79;225250;1281;22561;-71
2023/05/27 19:48:18;;;;;;;8.50;4.60;;;;;;;14.44;57.26;99395.15;225216;1284;23491;-71
2023/05/27 19:53:30;;;;;;;9.40;4.80;;;;;;;14.35;57.78;99397.25;225221;1281;22546;-71
2023/05/27 19:58:35;;;;;;;11.50;5.10;;;;;;;14.25;58.02;99395.67;225226;1284;22547;-71
2023/05/27 20:03:39;;;;;;;7.60;4.90;;;;;;;14.16;58.22;99393.95;225168;1284;22557;-71
2023/05/27 20:08:53;;;;;;;11.00;5.60;;;;;;;14.06;58.52;99392.14;225254;1281;22535;-71
2023/05/27 20:14:06;;;;;;;9.30;5.50;;;;;;;13.89;58.59;99390.20;225247;1279;22748;-71
2023/05/27 20:19:10;;;;;;;13.20;6.00;;;;;;;13.74;58.89;99396.05;225237;1284;22543;-71
2023/05/27 20:24:12;;;;;;;10.40;6.30;;;;;;;13.59;59.36;99394.05;225209;1284;22550;-71
2023/05/27 20:29:15;;;;;;;11.70;6.30;;;;;;;13.43;59.65;99396.66;225216;1284;22618;-71
2023/05/27 20:34:30;;;;;;;9.90;6.70;;;;;;;13.33;59.82;99396.60;225220;1284;22569;-73
2023/05/27 20:39:36;;;;;;;12.00;7.00;;;;;;;13.22;60.24;99390.27;225072;1284;22568;-72
2023/05/27 20:44:46;;;;;;;9.70;6.50;;;;;;;13.11;60.66;99392.66;225233;1283;22564;-72
2023/05/27 20:50:02;;;;;;;10.20;6.80;;;;;;;13.02;60.92;99388.08;225198;1283;22560;-71
2023/05/27 20:55:07;;;;;;;12.50;6.50;;;;;;;12.92;61.07;99388.71;225254;1281;24738;-72
2023/05/27 21:00:15;;;;;;;12.40;6.60;;;;;;;12.82;61.41;99389.98;225225;1284;22609;-71
2023/05/27 21:05:41;;;;;;;11.20;6.30;;;;;;;12.71;61.61;99383.98;225199;1283;23156;-73
2023/05/27 21:10:48;;;;;;;;;;;;;;;12.61;61.73;99381.70;225182;1284;22528;-71
2023/05/27 21:16:01;;;;;;;8.90;6.00;;;;;;;12.51;61.84;99381.66;225178;1284;22577;-70
2023/05/27 21:21:26;;;;;;;6.70;4.70;;;;;;;12.42;62.01;99381.48;225147;1284;22569;-72
2023/05/27 21:26:50;;;;;;;8.90;5.20;;;;;;;12.36;62.17;99383.91;225219;1284;22560;-71
2023/05/27 21:31:53;;;;;;;8.20;4.60;;;;;;;12.28;62.04;99376.17;225259;1284;22537;-72
2023/05/27 21:37:10;;;;;;;8.60;4.30;;;;;;;12.18;62.20;99372.94;225220;1281;24401;-71
2023/05/27 21:42:20;;;;;;;6.00;3.90;;;;;;;12.09;62.27;99370.13;225270;1281;22543;-70
2023/05/27 21:47:46;;;;;;;9.10;4.10;;;;;;;12.00;62.42;99365.84;225228;1284;22559;-71
2023/05/27 21:53:10;;;;;;;6.60;3.90;;;;;;;11.93;62.61;99367.00;225213;1282;23457;-72
2023/05/27 21:58:13;;;;;;;5.80;4.00;;;;;;;11.89;62.78;99361.97;225196;1284;22554;-72
2023/05/27 22:03:26;;;;;;;8.00;4.10;;;;;;;11.86;62.89;99355.55;225228;1284;22543;-72
2023/05/27 22:08:30;;;;;;;6.40;4.40;;;;;;;11.81;63.07;99357.14;225220;1282;23338;-72
2023/05/27 22:13:38;;;;;;;9.90;4.60;;;;;;;11.76;63.14;99355.10;225181;1284;22675;-71
2023/05/27 22:18:45;;;;;;;9.10;4.80;;;;;;;11.69;63.37;99351.87;225224;1284;23652;-72
2023/05/27 22:23:47;;;;;;;10.40;4.40;;;;;;;11.60;63.57;99350.31;225229;1282;22559;-71
2023/05/27 22:29:03;;;;;;;8.00;4.60;;;;;;;11.54;63.78;99349.54;225240;1284;25715;-71
2023/05/27 22:34:14;;;;;;;9.00;4.90;;;;;;;11.51;63.91;99346.23;225213;1284;21914;-72
2023/05/27 22:39:57;;;;;;;9.30;4.90;;;;;;;11.45;64.06;99335.75;225063;1284;259776;-71
2023/05/27 22:45:05;;;;;;;8.20;5.10;;;;;;;11.37;64.05;99335.91;225251;1284;22618;-72
2023/05/27 22:50:16;;;;;;;10.10;5.30;;;;;;;11.30;64.21;99333.84;225273;1283;22572;-71
2023/05/27 22:55:24;;;;;;;12.80;4.90;;;;;;;11.23;64.42;99333.98;225268;1278;22546;-71
2023/05/27 23:00:35;;;;;;;10.50;5.30;;;;;;;11.16;64.49;99329.00;225249;1284;22555;-71
2023/05/27 23:05:44;;;;;;;9.80;5.00;;;;;;;11.08;64.71;99324.48;225201;1284;22528;-72
2023/05/27 23:10:53;;;;;;;10.50;5.50;;;;;;;11.00;64.77;99321.49;225175;1284;22538;-72
2023/05/27 23:16:07;;;;;;;9.30;4.80;;;;;;;10.91;64.87;99318.23;225325;1284;22603;-71
2023/05/27 23:21:13;;;;;;;8.30;5.40;;;;;;;10.83;65.21;99315.84;225256;1284;22550;-71
2023/05/27 23:26:39;;;;;;;9.50;5.80;;;;;;;10.75;65.20;99315.57;225252;1284;22622;-71
2023/05/27 23:31:51;;;;;;;8.70;4.90;;;;;;;10.61;65.70;99316.15;225248;1284;22624;-72
2023/05/27 23:37:06;;;;;;;8.30;5.30;;;;;;;10.46;65.89;99310.80;225277;1284;22550;-71
2023/05/27 23:42:34;;;;;;;8.70;5.20;;;;;;;10.33;66.23;99304.52;225251;1281;22560;-71
2023/05/27 23:48:03;;;;;;;12.40;6.20;;;;;;;10.21;66.37;99299.90;225297;1284;22580;-70
2023/05/27 23:53:24;;;;;;;11.20;5.50;;;;;;;10.09;66.75;99295.89;225340;1284;22555;-71
2023/05/27 23:58:51;;;;;;;8.80;4.70;;;;;;;10.01;67.10;99289.02;225247;1284;22649;-71
